Concerto — JJ3855 — position and weather

sailwx.info

Track history (hours):
 
Tides and Currents Weather Stations Pressure Air Temp Water Temp Dewpoint Dewpoint Depression Visibility Wind Speed Wind Dir Waves Ship Positions

Concerto

Last reported at 2015-Jul-30 07:30 UTC. Time now 2015-Aug-01 09:48 UTC.
Position N 34°41' E 135°11'.

Length 74 m; draft 3 m.

Type: Passenger vessel. MMSI: 431000448.

Date/timePositionNaut miles runAvg speedWind from/ knotsBaromVisibWave heightAir tempDewpointWater temp
2015-Jul-30 07:30N 34°41' E 135°11'3 3.5
2015-Jul-30 06:34N 34°38' E 135°09'3 2.9
2015-Jul-30 05:26N 34°41' E 135°11'0 0.3
2015-Jul-30 04:33N 34°41' E 135°11'3 2.5
2015-Jul-30 03:33N 34°38' E 135°10'3 0.5
2015-Jul-29 22:33N 34°41' E 135°11'0 0.0
2015-Jul-29 21:32N 34°41' E 135°11'0 0.0
2015-Jul-29 20:33N 34°41' E 135°11'0 0.0
2015-Jul-29 19:33N 34°41' E 135°11'0 0.0
2015-Jul-29 18:33N 34°41' E 135°11'0 0.0
2015-Jul-29 17:33N 34°41' E 135°11'0 0.0
2015-Jul-29 16:33N 34°41' E 135°11'0 0.0
2015-Jul-29 15:33N 34°41' E 135°11'0 0.0
2015-Jul-29 14:33N 34°41' E 135°11'0 0.0
2015-Jul-29 13:33N 34°41' E 135°11'0 0.0
2015-Jul-29 12:33N 34°41' E 135°11'3 2.8
2015-Jul-29 11:33N 34°38' E 135°11'2 2.0
2015-Jul-29 10:33N 34°40' E 135°11'1 0.9
2015-Jul-29 09:33N 34°39' E 135°11'1 0.7
2015-Jul-29 08:33N 34°39' E 135°11'2 2.2
2015-Jul-29 07:32N 34°41' E 135°11'3 3.3
2015-Jul-29 06:33N 34°38' E 135°09'3 2.8
2015-Jul-29 05:24N 34°41' E 135°11'0 0.4
2015-Jul-29 04:33N 34°41' E 135°11'3 2.6
2015-Jul-29 03:33N 34°38' E 135°10'1 0.0
2015-Jul-28 11:33N 34°38' E 135°10'3 2.6
2015-Jul-28 10:33N 34°40' E 135°11'1 1.0
2015-Jul-28 09:33N 34°39' E 135°11'1 0.9
2015-Jul-28 08:34N 34°38' E 135°11'2 2.3
2015-Jul-28 07:29N 34°41' E 135°11'4 4.0
2015-Jul-28 06:33N 34°37' E 135°09'4 2.7
2015-Jul-28 05:10N 34°41' E 135°11'1 1.0
2015-Jul-28 04:33N 34°40' E 135°12'3 2.7
2015-Jul-28 03:34N 34°38' E 135°10'0 0.0
2015-Jul-27 11:33N 34°38' E 135°11'2 2.3
2015-Jul-27 10:33N 34°40' E 135°11'1 1.1
2015-Jul-27 09:33N 34°39' E 135°11'0 0.4
2015-Jul-27 08:33N 34°39' E 135°11'2 1.7
2015-Jul-27 07:21N 34°41' E 135°11'3 4.2
2015-Jul-27 06:33N 34°38' E 135°10'3 3.4
2015-Jul-27 05:33N 34°41' E 135°11'0 0.4
2015-Jul-27 04:33N 34°40' E 135°11'3 2.9
2015-Jul-27 03:33N 34°38' E 135°10'3 2.8
2015-Jul-27 02:27N 34°41' E 135°11'0 0.0
2015-Jul-27 01:27N 34°41' E 135°11'0 0.0
2015-Jul-27 00:33N 34°41' E 135°11'0 0.0
2015-Jul-26 23:27N 34°41' E 135°11'0 0.0
2015-Jul-26 22:27N 34°41' E 135°11'0 0.0
2015-Jul-26 21:27N 34°41' E 135°11'0 0.0
2015-Jul-26 20:33N 34°41' E 135°11'0 0.0
2015-Jul-26 19:33N 34°41' E 135°11'0 0.0
2015-Jul-26 18:33N 34°41' E 135°11'0 0.0
2015-Jul-26 17:33N 34°41' E 135°11'0 0.0
2015-Jul-26 16:33N 34°41' E 135°11'0 0.0
2015-Jul-26 15:33N 34°41' E 135°11'0 0.0
2015-Jul-26 14:27N 34°41' E 135°11'0 0.0
2015-Jul-26 13:33N 34°41' E 135°11'0 0.0
2015-Jul-26 12:33N 34°41' E 135°11'2 2.1
2015-Jul-26 11:33N 34°39' E 135°11'2 1.8
2015-Jul-26 10:33N 34°40' E 135°12'1 1.3
2015-Jul-26 09:33N 34°39' E 135°11'0 0.2
2015-Jul-26 08:34N 34°39' E 135°11'1 1.3
2015-Jul-26 07:26N 34°41' E 135°11'3 2.9
2015-Jul-26 06:33N 34°38' E 135°11'3 2.2
2015-Jul-26 05:23N 34°41' E 135°11'0 0.3
2015-Jul-26 04:33N 34°41' E 135°11'3 2.9
2015-Jul-26 03:33N 34°38' E 135°10'3 2.9
2015-Jul-26 02:31N 34°41' E 135°11'0 0.0
2015-Jul-26 01:31N 34°41' E 135°11'0 0.0
2015-Jul-26 00:25N 34°41' E 135°11'0 0.0
2015-Jul-25 23:31N 34°41' E 135°11'0 0.0
2015-Jul-25 22:31N 34°41' E 135°11'0 0.0
2015-Jul-25 21:31N 34°41' E 135°11'0 0.0
2015-Jul-25 20:31N 34°41' E 135°11'0 0.0
2015-Jul-25 19:31N 34°41' E 135°11'0 0.0
2015-Jul-25 18:31N 34°41' E 135°11'0 0.0
2015-Jul-25 17:31N 34°41' E 135°11'0 0.0
2015-Jul-25 16:31N 34°41' E 135°11'0 0.0
2015-Jul-25 15:31N 34°41' E 135°11'0 0.0
2015-Jul-25 14:31N 34°41' E 135°11'0 0.0
2015-Jul-25 13:31N 34°41' E 135°11'0 0.0
2015-Jul-25 12:31N 34°41' E 135°11'3 3.2
2015-Jul-25 11:33N 34°38' E 135°11'2 2.5
2015-Jul-25 10:33N 34°40' E 135°11'1 0.9
2015-Jul-25 09:32N 34°39' E 135°11'0 0.2
2015-Jul-25 08:33N 34°39' E 135°11'2 1.7
2015-Jul-25 07:31N 34°41' E 135°11'2 2.5
2015-Jul-25 06:33N 34°38' E 135°11'2 2.4
2015-Jul-25 05:30N 34°41' E 135°11'1 0.7
2015-Jul-25 04:33N 34°40' E 135°12'2 2.2
2015-Jul-25 03:33N 34°38' E 135°10'3 0.2
2015-Jul-24 12:06N 34°41' E 135°11'4 6.6
2015-Jul-24 11:34N 34°37' E 135°10'3 3.1
2015-Jul-24 10:34N 34°40' E 135°11'1 1.0
2015-Jul-24 09:33N 34°39' E 135°11'1 0.6
2015-Jul-24 08:33N 34°39' E 135°11'2 2.0
2015-Jul-24 07:28N 34°41' E 135°11'3 3.2
2015-Jul-24 06:33N 34°38' E 135°10'3 2.7
2015-Jul-24 05:28N 34°41' E 135°11'1 0.7
2015-Jul-24 04:33N 34°40' E 135°12'3 3.1
2015-Jul-24 03:33N 34°38' E 135°10'3 3.3
2015-Jul-24 02:33N 34°41' E 135°11'0 0.0
2015-Jul-24 01:33N 34°41' E 135°11'0 0.0
2015-Jul-24 00:33N 34°41' E 135°11'0 0.0
2015-Jul-23 23:33N 34°41' E 135°11'0 0.0
2015-Jul-23 22:33N 34°41' E 135°11'0 0.0
2015-Jul-23 21:33N 34°41' E 135°11'0 0.0
2015-Jul-23 20:33N 34°41' E 135°11'0 0.0
2015-Jul-23 19:33N 34°41' E 135°11'0 0.0
2015-Jul-23 18:33N 34°41' E 135°11'0 0.0
2015-Jul-23 17:33N 34°41' E 135°11'0 0.0
2015-Jul-23 16:33N 34°41' E 135°11'0 0.0
2015-Jul-23 15:33N 34°41' E 135°11'0 0.0
2015-Jul-23 14:33N 34°41' E 135°11'0 0.0
2015-Jul-23 13:33N 34°41' E 135°11'0 0.0
2015-Jul-23 12:33N 34°41' E 135°11'3 3.0
2015-Jul-23 11:33N 34°38' E 135°10'2 2.0
2015-Jul-23 10:33N 34°40' E 135°11'0 0.5
2015-Jul-23 09:34N 34°39' E 135°11'1 1.0
2015-Jul-23 08:33N 34°38' E 135°11'2 2.3
2015-Jul-23 07:30N 34°41' E 135°11'3 3.0
2015-Jul-23 06:33N 34°38' E 135°10'3 2.6
2015-Jul-23 05:28N 34°41' E 135°11'0 0.5
2015-Jul-23 04:33N 34°40' E 135°11'3 3.3
2015-Jul-23 03:33N 34°38' E 135°10'2 0.1
2015-Jul-22 11:33N 34°39' E 135°11'1 1.2
2015-Jul-22 10:33N 34°40' E 135°11'0 0.4
2015-Jul-22 09:33N 34°39' E 135°11'0 0.1
2015-Jul-22 08:33N 34°39' E 135°11'2 1.4
2015-Jul-22 07:27N 34°41' E 135°11'3 3.3
2015-Jul-22 06:33N 34°38' E 135°10'3 2.9
2015-Jul-22 05:32N 34°41' E 135°11'0 0.1
2015-Jul-22 04:33N 34°41' E 135°11'3 3.2
2015-Jul-22 03:33N 34°38' E 135°09'3 3.0
2015-Jul-22 02:29N 34°41' E 135°11'0 0.0
2015-Jul-22 01:29N 34°41' E 135°11'0 0.0
2015-Jul-22 00:23N 34°41' E 135°11'0 0.0
2015-Jul-21 23:29N 34°41' E 135°11'0 0.0
2015-Jul-21 22:29N 34°41' E 135°11'0 0.0
2015-Jul-21 21:23N 34°41' E 135°11'0 0.0
2015-Jul-21 20:17N 34°41' E 135°11'0 0.0
2015-Jul-21 19:29N 34°41' E 135°11'0 0.0
2015-Jul-21 18:29N 34°41' E 135°11'0 0.0
2015-Jul-21 17:29N 34°41' E 135°11'0 0.0
2015-Jul-21 16:29N 34°41' E 135°11'0 0.0
2015-Jul-21 15:29N 34°41' E 135°11'0 0.0
2015-Jul-21 14:29N 34°41' E 135°11'0 0.0
2015-Jul-21 13:23N 34°41' E 135°11'0 0.0
2015-Jul-21 12:29N 34°41' E 135°11'3 2.8
2015-Jul-21 11:33N 34°38' E 135°11'2 1.7
2015-Jul-21 10:33N 34°40' E 135°11'0 0.4
2015-Jul-21 09:33N 34°40' E 135°11'1 0.9
2015-Jul-21 08:33N 34°39' E 135°11'2 2.1
2015-Jul-21 07:33N 34°41' E 135°11'3 3.4
2015-Jul-21 06:34N 34°38' E 135°09'3 3.3
2015-Jul-21 05:33N 34°41' E 135°11'0 0.2
2015-Jul-21 04:33N 34°41' E 135°11'3 3.2
2015-Jul-21 03:33N 34°38' E 135°10'3 3.3
2015-Jul-21 02:33N 34°41' E 135°11'0 0.0
2015-Jul-21 01:34N 34°41' E 135°11'0 0.0
2015-Jul-21 00:33N 34°41' E 135°11'0 0.0
2015-Jul-20 23:33N 34°41' E 135°11'0 0.0
2015-Jul-20 22:34N 34°41' E 135°11'0 0.0
2015-Jul-20 21:34N 34°41' E 135°11'0 0.0
2015-Jul-20 20:33N 34°41' E 135°11'0 0.0
2015-Jul-20 19:33N 34°41' E 135°11'0 0.0
2015-Jul-20 18:33N 34°41' E 135°11'0 0.0
2015-Jul-20 17:34N 34°41' E 135°11'0 0.0
2015-Jul-20 16:33N 34°41' E 135°11'0 0.0
2015-Jul-20 15:34N 34°41' E 135°11'0 0.0
2015-Jul-20 14:33N 34°41' E 135°11'0 0.0
2015-Jul-20 13:34N 34°41' E 135°11'0 0.0
2015-Jul-20 12:33N 34°41' E 135°11'3 3.1
2015-Jul-20 11:33N 34°38' E 135°10'3 2.6
2015-Jul-20 10:33N 34°40' E 135°11'1 1.4
2015-Jul-20 09:32N 34°39' E 135°11'0 0.3
2015-Jul-20 08:33N 34°39' E 135°11'2 1.8
2015-Jul-20 07:33N 34°41' E 135°11'  
Track history (hours):
 
Tides and Currents Weather Stations Pressure Air Temp Water Temp Dewpoint Dewpoint Depression Visibility Wind Speed Wind Dir Waves Ship Positions

Concerto

Last reported at 2015-Jul-30 07:30 UTC. Time now 2015-Aug-01 09:48 UTC.
Position N 34°41' E 135°11'.

Length 74 m; draft 3 m.

Type: Passenger vessel. MMSI: 431000448.

Date/timePositionNaut miles runAvg speedWind from/ knotsBaromVisibWave heightAir tempDewpointWater temp
2015-Jul-30 07:30N 34°41' E 135°11'3 3.5
2015-Jul-30 06:34N 34°38' E 135°09'3 2.9
2015-Jul-30 05:26N 34°41' E 135°11'0 0.3
2015-Jul-30 04:33N 34°41' E 135°11'3 2.5
2015-Jul-30 03:33N 34°38' E 135°10'3 0.5
2015-Jul-29 22:33N 34°41' E 135°11'0 0.0
2015-Jul-29 21:32N 34°41' E 135°11'0 0.0
2015-Jul-29 20:33N 34°41' E 135°11'0 0.0
2015-Jul-29 19:33N 34°41' E 135°11'0 0.0
2015-Jul-29 18:33N 34°41' E 135°11'0 0.0
2015-Jul-29 17:33N 34°41' E 135°11'0 0.0
2015-Jul-29 16:33N 34°41' E 135°11'0 0.0
2015-Jul-29 15:33N 34°41' E 135°11'0 0.0
2015-Jul-29 14:33N 34°41' E 135°11'0 0.0
2015-Jul-29 13:33N 34°41' E 135°11'0 0.0
2015-Jul-29 12:33N 34°41' E 135°11'3 2.8
2015-Jul-29 11:33N 34°38' E 135°11'2 2.0
2015-Jul-29 10:33N 34°40' E 135°11'1 0.9
2015-Jul-29 09:33N 34°39' E 135°11'1 0.7
2015-Jul-29 08:33N 34°39' E 135°11'2 2.2
2015-Jul-29 07:32N 34°41' E 135°11'3 3.3
2015-Jul-29 06:33N 34°38' E 135°09'3 2.8
2015-Jul-29 05:24N 34°41' E 135°11'0 0.4
2015-Jul-29 04:33N 34°41' E 135°11'3 2.6
2015-Jul-29 03:33N 34°38' E 135°10'1 0.0
2015-Jul-28 11:33N 34°38' E 135°10'3 2.6
2015-Jul-28 10:33N 34°40' E 135°11'1 1.0
2015-Jul-28 09:33N 34°39' E 135°11'1 0.9
2015-Jul-28 08:34N 34°38' E 135°11'2 2.3
2015-Jul-28 07:29N 34°41' E 135°11'4 4.0
2015-Jul-28 06:33N 34°37' E 135°09'4 2.7
2015-Jul-28 05:10N 34°41' E 135°11'1 1.0
2015-Jul-28 04:33N 34°40' E 135°12'3 2.7
2015-Jul-28 03:34N 34°38' E 135°10'0 0.0
2015-Jul-27 11:33N 34°38' E 135°11'2 2.3
2015-Jul-27 10:33N 34°40' E 135°11'1 1.1
2015-Jul-27 09:33N 34°39' E 135°11'0 0.4
2015-Jul-27 08:33N 34°39' E 135°11'2 1.7
2015-Jul-27 07:21N 34°41' E 135°11'3 4.2
2015-Jul-27 06:33N 34°38' E 135°10'3 3.4
2015-Jul-27 05:33N 34°41' E 135°11'0 0.4
2015-Jul-27 04:33N 34°40' E 135°11'3 2.9
2015-Jul-27 03:33N 34°38' E 135°10'3 2.8
2015-Jul-27 02:27N 34°41' E 135°11'0 0.0
2015-Jul-27 01:27N 34°41' E 135°11'0 0.0
2015-Jul-27 00:33N 34°41' E 135°11'0 0.0
2015-Jul-26 23:27N 34°41' E 135°11'0 0.0
2015-Jul-26 22:27N 34°41' E 135°11'0 0.0
2015-Jul-26 21:27N 34°41' E 135°11'0 0.0
2015-Jul-26 20:33N 34°41' E 135°11'0 0.0
2015-Jul-26 19:33N 34°41' E 135°11'0 0.0
2015-Jul-26 18:33N 34°41' E 135°11'0 0.0
2015-Jul-26 17:33N 34°41' E 135°11'0 0.0
2015-Jul-26 16:33N 34°41' E 135°11'0 0.0
2015-Jul-26 15:33N 34°41' E 135°11'0 0.0
2015-Jul-26 14:27N 34°41' E 135°11'0 0.0
2015-Jul-26 13:33N 34°41' E 135°11'0 0.0
2015-Jul-26 12:33N 34°41' E 135°11'2 2.1
2015-Jul-26 11:33N 34°39' E 135°11'2 1.8
2015-Jul-26 10:33N 34°40' E 135°12'1 1.3
2015-Jul-26 09:33N 34°39' E 135°11'0 0.2
2015-Jul-26 08:34N 34°39' E 135°11'1 1.3
2015-Jul-26 07:26N 34°41' E 135°11'3 2.9
2015-Jul-26 06:33N 34°38' E 135°11'3 2.2
2015-Jul-26 05:23N 34°41' E 135°11'0 0.3
2015-Jul-26 04:33N 34°41' E 135°11'3 2.9
2015-Jul-26 03:33N 34°38' E 135°10'3 2.9
2015-Jul-26 02:31N 34°41' E 135°11'0 0.0
2015-Jul-26 01:31N 34°41' E 135°11'0 0.0
2015-Jul-26 00:25N 34°41' E 135°11'0 0.0
2015-Jul-25 23:31N 34°41' E 135°11'0 0.0
2015-Jul-25 22:31N 34°41' E 135°11'0 0.0
2015-Jul-25 21:31N 34°41' E 135°11'0 0.0
2015-Jul-25 20:31N 34°41' E 135°11'0 0.0
2015-Jul-25 19:31N 34°41' E 135°11'0 0.0
2015-Jul-25 18:31N 34°41' E 135°11'0 0.0
2015-Jul-25 17:31N 34°41' E 135°11'0 0.0
2015-Jul-25 16:31N 34°41' E 135°11'0 0.0
2015-Jul-25 15:31N 34°41' E 135°11'0 0.0
2015-Jul-25 14:31N 34°41' E 135°11'0 0.0
2015-Jul-25 13:31N 34°41' E 135°11'0 0.0
2015-Jul-25 12:31N 34°41' E 135°11'3 3.2
2015-Jul-25 11:33N 34°38' E 135°11'2 2.5
2015-Jul-25 10:33N 34°40' E 135°11'1 0.9
2015-Jul-25 09:32N 34°39' E 135°11'0 0.2
2015-Jul-25 08:33N 34°39' E 135°11'2 1.7
2015-Jul-25 07:31N 34°41' E 135°11'2 2.5
2015-Jul-25 06:33N 34°38' E 135°11'2 2.4
2015-Jul-25 05:30N 34°41' E 135°11'1 0.7
2015-Jul-25 04:33N 34°40' E 135°12'2 2.2
2015-Jul-25 03:33N 34°38' E 135°10'3 0.2
2015-Jul-24 12:06N 34°41' E 135°11'4 6.6
2015-Jul-24 11:34N 34°37' E 135°10'3 3.1
2015-Jul-24 10:34N 34°40' E 135°11'1 1.0
2015-Jul-24 09:33N 34°39' E 135°11'1 0.6
2015-Jul-24 08:33N 34°39' E 135°11'2 2.0
2015-Jul-24 07:28N 34°41' E 135°11'3 3.2
2015-Jul-24 06:33N 34°38' E 135°10'3 2.7
2015-Jul-24 05:28N 34°41' E 135°11'1 0.7
2015-Jul-24 04:33N 34°40' E 135°12'3 3.1
2015-Jul-24 03:33N 34°38' E 135°10'3 3.3
2015-Jul-24 02:33N 34°41' E 135°11'0 0.0
2015-Jul-24 01:33N 34°41' E 135°11'0 0.0
2015-Jul-24 00:33N 34°41' E 135°11'0 0.0
2015-Jul-23 23:33N 34°41' E 135°11'0 0.0
2015-Jul-23 22:33N 34°41' E 135°11'0 0.0
2015-Jul-23 21:33N 34°41' E 135°11'0 0.0
2015-Jul-23 20:33N 34°41' E 135°11'0 0.0
2015-Jul-23 19:33N 34°41' E 135°11'0 0.0
2015-Jul-23 18:33N 34°41' E 135°11'0 0.0
2015-Jul-23 17:33N 34°41' E 135°11'0 0.0
2015-Jul-23 16:33N 34°41' E 135°11'0 0.0
2015-Jul-23 15:33N 34°41' E 135°11'0 0.0
2015-Jul-23 14:33N 34°41' E 135°11'0 0.0
2015-Jul-23 13:33N 34°41' E 135°11'0 0.0
2015-Jul-23 12:33N 34°41' E 135°11'3 3.0
2015-Jul-23 11:33N 34°38' E 135°10'2 2.0
2015-Jul-23 10:33N 34°40' E 135°11'0 0.5
2015-Jul-23 09:34N 34°39' E 135°11'1 1.0
2015-Jul-23 08:33N 34°38' E 135°11'2 2.3
2015-Jul-23 07:30N 34°41' E 135°11'3 3.0
2015-Jul-23 06:33N 34°38' E 135°10'3 2.6
2015-Jul-23 05:28N 34°41' E 135°11'0 0.5
2015-Jul-23 04:33N 34°40' E 135°11'3 3.3
2015-Jul-23 03:33N 34°38' E 135°10'2 0.1
2015-Jul-22 11:33N 34°39' E 135°11'1 1.2
2015-Jul-22 10:33N 34°40' E 135°11'0 0.4
2015-Jul-22 09:33N 34°39' E 135°11'0 0.1
2015-Jul-22 08:33N 34°39' E 135°11'2 1.4
2015-Jul-22 07:27N 34°41' E 135°11'3 3.3
2015-Jul-22 06:33N 34°38' E 135°10'3 2.9
2015-Jul-22 05:32N 34°41' E 135°11'0 0.1
2015-Jul-22 04:33N 34°41' E 135°11'3 3.2
2015-Jul-22 03:33N 34°38' E 135°09'3 3.0
2015-Jul-22 02:29N 34°41' E 135°11'0 0.0
2015-Jul-22 01:29N 34°41' E 135°11'0 0.0
2015-Jul-22 00:23N 34°41' E 135°11'0 0.0
2015-Jul-21 23:29N 34°41' E 135°11'0 0.0
2015-Jul-21 22:29N 34°41' E 135°11'0 0.0
2015-Jul-21 21:23N 34°41' E 135°11'0 0.0
2015-Jul-21 20:17N 34°41' E 135°11'0 0.0
2015-Jul-21 19:29N 34°41' E 135°11'0 0.0
2015-Jul-21 18:29N 34°41' E 135°11'0 0.0
2015-Jul-21 17:29N 34°41' E 135°11'0 0.0
2015-Jul-21 16:29N 34°41' E 135°11'0 0.0
2015-Jul-21 15:29N 34°41' E 135°11'0 0.0
2015-Jul-21 14:29N 34°41' E 135°11'0 0.0
2015-Jul-21 13:23N 34°41' E 135°11'0 0.0
2015-Jul-21 12:29N 34°41' E 135°11'3 2.8
2015-Jul-21 11:33N 34°38' E 135°11'2 1.7
2015-Jul-21 10:33N 34°40' E 135°11'0 0.4
2015-Jul-21 09:33N 34°40' E 135°11'1 0.9
2015-Jul-21 08:33N 34°39' E 135°11'2 2.1
2015-Jul-21 07:33N 34°41' E 135°11'3 3.4
2015-Jul-21 06:34N 34°38' E 135°09'3 3.3
2015-Jul-21 05:33N 34°41' E 135°11'0 0.2
2015-Jul-21 04:33N 34°41' E 135°11'3 3.2
2015-Jul-21 03:33N 34°38' E 135°10'3 3.3
2015-Jul-21 02:33N 34°41' E 135°11'0 0.0
2015-Jul-21 01:34N 34°41' E 135°11'0 0.0
2015-Jul-21 00:33N 34°41' E 135°11'0 0.0
2015-Jul-20 23:33N 34°41' E 135°11'0 0.0
2015-Jul-20 22:34N 34°41' E 135°11'0 0.0
2015-Jul-20 21:34N 34°41' E 135°11'0 0.0
2015-Jul-20 20:33N 34°41' E 135°11'0 0.0
2015-Jul-20 19:33N 34°41' E 135°11'0 0.0
2015-Jul-20 18:33N 34°41' E 135°11'0 0.0
2015-Jul-20 17:34N 34°41' E 135°11'0 0.0
2015-Jul-20 16:33N 34°41' E 135°11'0 0.0
2015-Jul-20 15:34N 34°41' E 135°11'0 0.0
2015-Jul-20 14:33N 34°41' E 135°11'0 0.0
2015-Jul-20 13:34N 34°41' E 135°11'0 0.0
2015-Jul-20 12:33N 34°41' E 135°11'3 3.1
2015-Jul-20 11:33N 34°38' E 135°10'3 2.6
2015-Jul-20 10:33N 34°40' E 135°11'1 1.4
2015-Jul-20 09:32N 34°39' E 135°11'0 0.3
2015-Jul-20 08:33N 34°39' E 135°11'2 1.8
2015-Jul-20 07:33N 34°41' E 135°11'  

Dump ship's entire track history